Time;durP1;ratioP1;P1;durP2;ratioP2;P2;SDS_P1;SDS_P2;PMS_P1;PMS_P2;Temp;Humidity;BMP_temperature;BMP_pressure;BME280_temperature;BME280_humidity;BME280_pressure;Samples;Min_cycle;Max_cycle;Signal;HPM_P1;HPM_P2
2022/01/27 00:01:14;;;;;;;41.42;19.38;;;;;;;-2.27;100.00;95647.63;5046579;28;20507;-46
2022/01/27 00:03:51;;;;;;;38.03;16.98;;;;;;;-2.21;100.00;95642.00;5044447;28;20502;-46
2022/01/27 00:06:19;;;;;;;37.70;16.92;;;;;;;-2.22;100.00;95650.59;5041576;28;20065;-46
2022/01/27 00:08:53;;;;;;;30.60;16.65;;;;;;;-2.18;100.00;95646.88;5042859;28;20045;-50
2022/01/27 00:11:20;;;;;;;32.22;16.60;;;;;;;-2.16;100.00;95649.25;5044298;28;20398;-48
2022/01/27 00:13:54;;;;;;;35.20;17.48;;;;;;;-2.20;100.00;95638.50;5042466;28;20072;-49
2022/01/27 00:16:28;;;;;;;40.30;19.57;;;;;;;-2.18;100.00;95635.81;5041648;28;20044;-46
2022/01/27 00:18:56;;;;;;;50.78;18.38;;;;;;;-2.16;100.00;95634.78;5042783;28;21015;-45
2022/01/27 00:21:29;;;;;;;36.58;16.10;;;;;;;-2.16;100.00;95642.44;5046117;28;20506;-46
2022/01/27 00:23:56;;;;;;;43.15;18.25;;;;;;;-2.16;100.00;95634.78;5045069;28;20045;-46
2022/01/27 00:26:24;;;;;;;37.17;15.60;;;;;;;-2.17;100.00;95633.16;5045953;28;20041;-47
2022/01/27 00:28:51;;;;;;;45.40;17.20;;;;;;;-2.20;100.00;95635.97;5045817;28;20056;-47
2022/01/27 00:31:20;;;;;;;49.65;19.58;;;;;;;-2.19;100.00;95645.25;5046236;28;20049;-46
2022/01/27 00:33:48;;;;;;;34.88;15.13;;;;;;;-2.17;100.00;95638.25;5045131;28;20045;-47
2022/01/27 00:36:40;;;;;;;24.95;13.10;;;;;;;-2.18;100.00;95639.22;5049000;28;20110;-46
2022/01/27 00:39:07;;;;;;;35.85;16.15;;;;;;;-2.18;100.00;95639.22;5049799;28;20068;-50
2022/01/27 00:41:34;;;;;;;33.47;14.05;;;;;;;-2.24;100.00;95626.16;5054793;28;20049;-48
2022/01/27 00:44:02;;;;;;;30.50;14.10;;;;;;;-2.15;100.00;95631.28;5048013;28;20052;-48
2022/01/27 00:46:32;;;;;;;33.30;15.30;;;;;;;-2.12;100.00;95635.31;5045355;28;20457;-47
2022/01/27 00:48:58;;;;;;;38.65;17.63;;;;;;;-2.16;100.00;95634.78;5050310;28;20044;-47
2022/01/27 00:51:29;;;;;;;25.30;12.00;;;;;;;-2.19;100.00;95637.59;5044896;28;20494;-48
2022/01/27 00:56:36;;;;;;;31.90;13.52;;;;;;;-2.19;100.00;95635.03;5044334;28;20037;-46
2022/01/27 01:02:09;;;;;;;22.25;10.38;;;;;;;-2.23;100.00;95623.47;5036321;28;20400;-45
2022/01/27 01:04:40;;;;;;;22.33;11.00;;;;;;;-2.20;100.00;95630.84;5043816;28;20137;-46
2022/01/27 01:07:08;;;;;;;20.65;8.55;;;;;;;-2.20;100.00;95627.50;5044846;28;20049;-45
2022/01/27 01:15:20;;;;;;;16.77;7.97;;;;;;;-2.21;100.00;95629.25;5046194;28;20045;-47
2022/01/27 01:18:04;;;;;;;22.02;10.60;;;;;;;-2.15;100.00;95626.16;5049763;28;20040;-47
2022/01/27 01:20:45;;;;;;;17.23;9.10;;;;;;;-2.15;100.00;95623.63;5049431;28;20070;-46
2022/01/27 01:31:33;;;;;;;21.52;10.20;;;;;;;-2.12;100.00;95609.78;5044006;28;20063;-48
2022/01/27 01:34:13;;;;;;;14.05;7.55;;;;;;;-2.11;100.00;95616.50;5044270;28;20049;-46
2022/01/27 01:36:54;;;;;;;18.67;8.57;;;;;;;-2.15;100.00;95610.06;5051817;28;20045;-47
2022/01/27 01:39:27;;;;;;;20.17;8.73;;;;;;;-2.13;100.00;95618.38;5044071;28;20037;-46
2022/01/27 01:41:54;;;;;;;18.35;8.73;;;;;;;-2.19;100.00;95606.97;5046912;28;20052;-47
2022/01/27 01:44:23;;;;;;;17.27;7.50;;;;;;;-2.17;100.00;95607.63;5045241;28;20469;-46
2022/01/27 01:46:50;;;;;;;22.08;9.50;;;;;;;-2.15;100.00;95602.41;5047236;28;20041;-46
2022/01/27 01:49:17;;;;;;;22.00;10.27;;;;;;;-2.12;100.00;95605.47;5042686;28;20041;-46
2022/01/27 01:51:44;;;;;;;17.70;8.50;;;;;;;-2.12;100.00;95600.38;5043678;28;20076;-46
2022/01/27 01:54:12;;;;;;;22.77;10.13;;;;;;;-2.10;100.00;95602.00;5044294;28;20154;-47
2022/01/27 01:56:41;;;;;;;14.88;8.10;;;;;;;-2.08;100.00;95597.56;5046927;28;20033;-47
2022/01/27 01:59:09;;;;;;;21.95;9.45;;;;;;;-2.08;100.00;95597.56;5050428;28;20102;-48
2022/01/27 02:01:37;;;;;;;17.48;7.43;;;;;;;-2.10;100.00;95594.34;5049850;28;20514;-46
2022/01/27 02:04:08;;;;;;;15.40;8.45;;;;;;;-2.13;100.00;95598.75;5043108;28;20067;-46
2022/01/27 02:20:07;;;;;;;17.58;7.55;;;;;;;-2.15;100.00;95589.63;5047304;28;20051;-48
2022/01/27 02:22:35;;;;;;;16.58;8.38;;;;;;;-2.10;100.00;95582.38;5047842;28;20410;-45
2022/01/27 02:25:04;;;;;;;16.23;7.32;;;;;;;-2.12;100.00;95577.41;5050365;28;20261;-46
2022/01/27 02:27:30;;;;;;;16.77;9.18;;;;;;;-2.10;100.00;95576.47;5045985;28;20037;-47
2022/01/27 02:29:57;;;;;;;16.80;7.53;;;;;;;-2.09;100.00;95580.63;5043494;28;20047;-46
2022/01/27 02:32:24;;;;;;;21.25;11.00;;;;;;;-2.10;100.00;95576.47;5044018;28;20045;-49
2022/01/27 02:34:51;;;;;;;25.02;10.70;;;;;;;-2.10;100.00;95576.47;5040685;28;20053;-46
2022/01/27 02:37:18;;;;;;;19.85;8.52;;;;;;;-2.12;100.00;95581.72;5042950;28;20045;-47
2022/01/27 02:39:45;;;;;;;17.25;9.85;;;;;;;-2.14;100.00;95581.84;5043895;28;20037;-47
2022/01/27 02:42:30;;;;;;;17.23;6.43;;;;;;;-2.12;100.00;95584.28;5049032;28;20197;-46
2022/01/27 02:45:03;;;;;;;;;;;;;;;-2.13;100.00;95580.88;5043237;28;20044;-46
2022/01/27 02:47:30;;;;;;;17.20;6.40;;;;;;;-2.15;100.00;95579.44;5043484;28;19921;-46
2022/01/27 02:49:57;;;;;;;26.67;10.05;;;;;;;-2.15;100.00;95580.22;5043300;28;20051;-46
2022/01/27 02:52:23;;;;;;;17.30;9.23;;;;;;;-2.12;100.00;95579.97;5042573;28;20041;-47
2022/01/27 02:54:50;;;;;;;21.10;10.93;;;;;;;-2.07;100.00;95581.31;5043011;28;20509;-47
2022/01/27 02:57:24;;;;;;;16.48;7.85;;;;;;;-2.13;100.00;95572.44;5056526;28;20064;-48
2022/01/27 02:59:52;;;;;;;17.55;7.95;;;;;;;-2.04;100.00;95581.03;5042362;28;20067;-46
2022/01/27 03:02:20;;;;;;;19.27;7.93;;;;;;;-2.05;100.00;95585.34;5043958;28;20044;-45
2022/01/27 03:04:47;;;;;;;18.17;9.35;;;;;;;-2.03;100.00;95577.56;5047216;28;20045;-46
2022/01/27 03:07:14;;;;;;;21.60;9.80;;;;;;;-2.08;100.00;95582.25;5045785;28;20068;-47
2022/01/27 03:09:42;;;;;;;15.07;8.18;;;;;;;-2.09;100.00;95585.72;5043092;28;20067;-45
2022/01/27 03:12:13;;;;;;;15.70;7.53;;;;;;;-2.05;100.00;95585.34;5048812;28;20053;-47
2022/01/27 03:14:41;;;;;;;16.30;7.97;;;;;;;-2.09;100.00;95583.19;5049528;28;20045;-48
2022/01/27 03:17:10;;;;;;;21.65;7.28;;;;;;;-2.05;100.00;95584.53;5043541;28;20144;-47
2022/01/27 03:19:38;;;;;;;14.63;7.68;;;;;;;-2.13;100.00;95580.88;5042151;28;20118;-45
2022/01/27 03:22:06;;;;;;;23.25;8.25;;;;;;;-2.09;100.00;95593.41;5048340;28;20047;-46
2022/01/27 03:24:34;;;;;;;25.42;9.95;;;;;;;-2.08;100.00;95585.59;5043095;28;20037;-46
2022/01/27 03:27:03;;;;;;;12.82;5.90;;;;;;;-2.05;100.00;95579.41;5042144;28;20061;-48
2022/01/27 03:29:30;;;;;;;13.93;7.80;;;;;;;-2.07;100.00;95576.19;5042264;28;20048;-46
2022/01/27 03:31:57;;;;;;;9.57;5.55;;;;;;;-2.13;100.00;95578.34;5047603;28;20045;-46
2022/01/27 03:34:24;;;;;;;14.10;5.13;;;;;;;-2.12;100.00;95592.72;5047156;28;20079;-48
2022/01/27 03:36:51;;;;;;;9.27;5.32;;;;;;;-2.07;100.00;95586.41;5046275;28;20041;-46
2022/01/27 03:39:21;;;;;;;12.25;5.65;;;;;;;-2.07;100.00;95581.31;5044201;28;20041;-47
2022/01/27 03:41:51;;;;;;;10.55;5.75;;;;;;;-2.05;100.00;95584.53;5046507;28;20041;-46
2022/01/27 03:44:19;;;;;;;8.38;4.47;;;;;;;-2.10;100.00;95572.19;5041863;28;20672;-48
2022/01/27 03:46:48;;;;;;;15.65;5.97;;;;;;;-2.07;100.00;95581.31;5042504;28;20061;-48
2022/01/27 03:49:16;;;;;;;8.65;5.10;;;;;;;-2.03;100.00;95580.09;5045962;28;20041;-47
2022/01/27 03:51:45;;;;;;;12.52;5.18;;;;;;;-2.03;100.00;95575.00;5044310;28;20040;-46
2022/01/27 03:54:12;;;;;;;13.68;5.93;;;;;;;-2.00;100.00;95587.47;5045417;28;20400;-45
2022/01/27 03:56:39;;;;;;;11.90;5.68;;;;;;;-2.01;100.00;95585.88;5052732;28;20584;-45
2022/01/27 03:59:06;;;;;;;11.38;5.60;;;;;;;-1.98;100.00;95581.31;5053200;28;20049;-47
2022/01/27 04:01:34;;;;;;;8.48;4.57;;;;;;;-1.98;100.00;95585.59;5053415;28;20036;-45
2022/01/27 04:04:01;;;;;;;9.23;5.93;;;;;;;-2.03;100.00;95582.66;5045700;28;20045;-46
2022/01/27 04:06:38;;;;;;;8.85;5.93;;;;;;;-2.00;100.00;95583.19;5044232;28;20048;-46
2022/01/27 04:09:09;;;;;;;14.15;5.85;;;;;;;-2.00;100.00;95588.31;5048446;28;20052;-46
2022/01/27 04:11:39;;;;;;;7.22;4.63;;;;;;;-2.00;100.00;95587.47;5047878;28;20135;-46
2022/01/27 04:14:06;;;;;;;10.68;5.68;;;;;;;-1.97;100.00;95587.22;5045118;28;20041;-47
2022/01/27 04:16:33;;;;;;;11.77;6.93;;;;;;;-1.97;100.00;95587.22;5046469;28;20045;-46
2022/01/27 04:19:00;;;;;;;12.70;7.13;;;;;;;-1.97;100.00;95589.78;5045456;28;20052;-46
2022/01/27 04:21:27;;;;;;;11.60;7.13;;;;;;;-2.13;100.00;95562.22;5045894;28;20507;-46
2022/01/27 04:23:54;;;;;;;14.73;7.80;;;;;;;-1.90;100.00;95595.16;5049167;28;20049;-47
2022/01/27 04:26:28;;;;;;;9.88;5.43;;;;;;;-1.90;100.00;95598.50;5046312;28;20041;-46
2022/01/27 04:28:55;;;;;;;14.75;6.45;;;;;;;-1.92;100.00;95595.28;5056852;28;20055;-46
2022/01/27 04:31:24;;;;;;;8.88;5.55;;;;;;;-1.87;100.00;95598.25;5049596;28;20056;-46
2022/01/27 04:33:52;;;;;;;11.02;6.22;;;;;;;-1.85;100.00;95596.38;5045135;28;20056;-46
2022/01/27 04:36:26;;;;;;;15.02;7.10;;;;;;;-1.85;100.00;95604.03;5044830;28;20045;-50
2022/01/27 04:39:19;;;;;;;8.40;5.07;;;;;;;-1.83;100.00;95594.47;5045123;28;20041;-45
2022/01/27 04:41:59;;;;;;;19.30;7.10;;;;;;;-1.84;100.00;95595.41;5054003;28;20048;-46
2022/01/27 04:47:10;;;;;;;23.00;9.13;;;;;;;-1.85;100.00;95593.81;5048614;28;20060;-47
2022/01/27 04:49:37;;;;;;;22.30;8.70;;;;;;;-1.86;100.00;95609.25;5043660;28;20056;-45
2022/01/27 04:52:05;;;;;;;19.50;7.82;;;;;;;-1.83;100.00;95609.78;5044182;28;20053;-47
2022/01/27 04:54:40;;;;;;;11.82;6.60;;;;;;;-1.81;100.00;95607.91;5047751;28;20049;-50
2022/01/27 04:57:07;;;;;;;10.70;5.97;;;;;;;-1.81;100.00;95613.00;5045039;28;20428;-46
2022/01/27 04:59:39;;;;;;;9.63;4.97;;;;;;;-1.83;100.00;95609.78;5047821;28;20499;-47
2022/01/27 05:02:14;;;;;;;10.63;6.00;;;;;;;-1.80;100.00;95617.19;5046836;28;20041;-46
2022/01/27 05:04:44;;;;;;;19.77;9.13;;;;;;;-1.81;100.00;95618.13;5047652;28;20048;-52
2022/01/27 05:07:11;;;;;;;14.05;7.70;;;;;;;-1.77;100.00;95618.66;5045706;28;20040;-46
2022/01/27 05:09:46;;;;;;;11.00;6.32;;;;;;;-1.78;100.00;95625.53;5045201;28;20044;-46
2022/01/27 05:12:21;;;;;;;20.63;9.98;;;;;;;-1.80;100.00;95624.84;5044320;28;20526;-46
2022/01/27 05:14:47;;;;;;;;;;;;;;;-1.87;100.00;95628.88;5045078;28;20533;-46
2022/01/27 05:17:17;;;;;;;8.05;4.55;;;;;;;-1.94;100.00;95627.81;5044558;28;19924;-47
2022/01/27 05:19:47;;;;;;;12.23;5.80;;;;;;;-1.93;100.00;95639.63;5044033;28;20049;-48
2022/01/27 05:22:14;;;;;;;12.75;6.80;;;;;;;-1.91;100.00;95637.72;5051741;28;20045;-47
2022/01/27 05:24:41;;;;;;;25.45;12.85;;;;;;;-1.92;100.00;95642.03;5044638;28;20477;-47
2022/01/27 05:27:08;;;;;;;15.95;9.35;;;;;;;-1.86;100.00;95640.69;5045080;28;20044;-47
2022/01/27 05:29:35;;;;;;;23.27;9.93;;;;;;;-1.83;100.00;95645.53;5044737;28;20048;-49
2022/01/27 05:32:03;;;;;;;18.88;10.85;;;;;;;-1.81;100.00;95642.88;5045548;28;20060;-47
2022/01/27 05:34:29;;;;;;;16.67;10.45;;;;;;;-1.87;100.00;95649.31;5044768;28;20045;-47
2022/01/27 05:37:02;;;;;;;13.73;8.02;;;;;;;-1.86;100.00;95650.91;5043936;28;20037;-46
2022/01/27 05:39:29;;;;;;;15.02;7.75;;;;;;;-1.87;100.00;95649.31;5044628;28;20052;-47
2022/01/27 05:41:55;;;;;;;13.32;5.97;;;;;;;-1.92;100.00;95634.38;5044917;28;20057;-47
2022/01/27 05:44:22;;;;;;;12.80;6.22;;;;;;;-1.85;100.00;95647.44;5044726;28;20396;-45
2022/01/27 05:46:49;;;;;;;8.43;5.10;;;;;;;-1.87;100.00;95644.22;5043748;28;20056;-47
2022/01/27 05:49:16;;;;;;;7.82;5.43;;;;;;;-1.87;100.00;95659.53;5046999;28;20506;-45
2022/01/27 05:51:43;;;;;;;13.30;7.18;;;;;;;-1.89;100.00;95651.19;5044068;28;20040;-46
2022/01/27 05:54:10;;;;;;;11.90;6.68;;;;;;;-1.87;100.00;95654.41;5050977;28;20130;-49
2022/01/27 05:56:37;;;;;;;13.52;6.60;;;;;;;-1.84;100.00;95649.03;5048279;28;20506;-47
2022/01/27 05:59:04;;;;;;;16.45;8.82;;;;;;;-1.82;100.00;95654.00;5043347;28;20051;-47
2022/01/27 06:01:31;;;;;;;12.48;6.43;;;;;;;-1.80;100.00;95660.59;5044985;28;20355;-46
2022/01/27 06:03:58;;;;;;;11.10;6.13;;;;;;;-1.85;100.00;95657.66;5043570;28;20045;-46
2022/01/27 06:06:30;;;;;;;10.00;7.30;;;;;;;-1.81;100.00;95663.28;5043965;28;20403;-46
2022/01/27 06:08:57;;;;;;;11.80;7.05;;;;;;;-1.87;100.00;95659.53;5044782;28;20041;-47
2022/01/27 06:11:24;;;;;;;11.63;6.80;;;;;;;-1.85;100.00;95657.66;5048019;28;20052;-47
2022/01/27 06:13:51;;;;;;;17.38;8.68;;;;;;;-1.83;100.00;95655.75;5044108;28;20128;-48
2022/01/27 06:16:18;;;;;;;19.63;8.20;;;;;;;-1.90;100.00;95652.13;5043144;28;20041;-48
2022/01/27 06:18:45;;;;;;;14.82;6.47;;;;;;;-1.85;100.00;95661.97;5043089;28;20055;-47
2022/01/27 06:21:13;;;;;;;12.05;6.32;;;;;;;-1.84;100.00;95669.47;5049960;28;20044;-47
2022/01/27 06:23:40;;;;;;;12.07;7.78;;;;;;;-1.83;100.00;95670.28;5044724;28;20052;-47
2022/01/27 06:26:07;;;;;;;12.10;6.95;;;;;;;-1.94;100.00;95655.91;5047711;28;20048;-46
2022/01/27 06:28:33;;;;;;;11.43;5.70;;;;;;;-1.80;100.00;95670.81;5048038;28;20075;-50
2022/01/27 06:31:00;;;;;;;15.73;6.75;;;;;;;-1.80;100.00;95675.94;5043380;28;20049;-48
2022/01/27 06:33:27;;;;;;;7.57;5.05;;;;;;;-1.79;100.00;95682.63;5043550;28;20048;-47
2022/01/27 06:35:54;;;;;;;14.95;8.07;;;;;;;-1.82;100.00;95687.19;5044473;28;20075;-45
2022/01/27 06:38:21;;;;;;;11.73;7.43;;;;;;;-1.82;100.00;95682.09;5042985;28;20045;-48
2022/01/27 06:40:48;;;;;;;14.82;7.68;;;;;;;-1.76;100.00;95686.69;5044189;28;20052;-46
2022/01/27 06:43:15;;;;;;;15.48;8.68;;;;;;;-1.69;100.00;95686.94;5049595;28;20091;-46
2022/01/27 06:45:42;;;;;;;9.57;6.18;;;;;;;-1.60;100.00;95686.16;5044281;28;20041;-48
2022/01/27 06:48:09;;;;;;;15.90;9.23;;;;;;;-1.60;100.00;95683.59;5047817;28;20091;-48
2022/01/27 06:50:38;;;;;;;16.52;10.30;;;;;;;-1.52;100.00;95688.84;5051058;28;20051;-50
2022/01/27 06:53:06;;;;;;;18.52;8.93;;;;;;;-1.50;100.00;95686.94;5045372;28;20818;-47
2022/01/27 06:55:33;;;;;;;18.60;9.60;;;;;;;-1.44;100.00;95686.44;5043251;28;20045;-47
2022/01/27 06:58:00;;;;;;;13.23;7.90;;;;;;;-1.43;100.00;95688.03;5052591;28;20037;-46
2022/01/27 07:00:27;;;;;;;15.60;7.32;;;;;;;-1.46;100.00;95688.31;5044902;28;20052;-45
2022/01/27 07:02:53;;;;;;;16.52;8.70;;;;;;;-1.45;100.00;95684.81;5044077;28;20049;-46
2022/01/27 07:05:20;;;;;;;15.70;8.00;;;;;;;-1.47;100.00;95680.78;5050136;28;20068;-48
2022/01/27 07:07:47;;;;;;;18.35;8.93;;;;;;;-1.42;100.00;95689.66;5041343;28;20045;-47
2022/01/27 07:10:14;;;;;;;13.93;7.90;;;;;;;-1.39;100.00;95679.16;5046118;28;20057;-47
2022/01/27 07:12:42;;;;;;;14.20;7.30;;;;;;;-1.45;100.00;95700.13;5044955;28;20046;-46
2022/01/27 07:15:10;;;;;;;16.58;7.28;;;;;;;-1.45;100.00;95689.91;5046476;28;20041;-47
2022/01/27 07:17:37;;;;;;;16.95;9.30;;;;;;;-1.40;100.00;95687.75;5041389;28;20396;-46
2022/01/27 07:20:04;;;;;;;22.63;9.40;;;;;;;-1.37;100.00;95682.38;5043118;28;20045;-49
2022/01/27 07:22:33;;;;;;;22.40;10.88;;;;;;;-1.40;100.00;95692.88;5042710;28;20049;-48
2022/01/27 07:25:00;;;;;;;14.23;8.27;;;;;;;-1.31;100.00;95690.47;5042287;28;20045;-46
2022/01/27 07:27:27;;;;;;;10.82;7.63;;;;;;;-1.35;100.00;95693.28;5040911;28;20048;-49
2022/01/27 07:29:54;;;;;;;12.48;8.10;;;;;;;-1.30;100.00;95697.16;5048925;28;20041;-47
2022/01/27 07:32:22;;;;;;;15.80;8.60;;;;;;;-1.27;100.00;95696.91;5049062;28;20049;-46
2022/01/27 07:34:49;;;;;;;16.88;9.48;;;;;;;-1.35;100.00;95698.38;5047061;28;20040;-45
2022/01/27 07:37:16;;;;;;;21.33;12.30;;;;;;;-1.24;100.00;95696.59;5046166;28;20040;-46
2022/01/27 07:39:43;;;;;;;23.02;11.95;;;;;;;-1.24;100.00;95697.44;5046992;28;20495;-46
2022/01/27 07:42:10;;;;;;;27.42;14.52;;;;;;;-1.23;100.00;95693.13;5044554;28;20048;-47
2022/01/27 07:44:39;;;;;;;22.02;11.65;;;;;;;-1.13;100.00;95686.25;5046329;28;20079;-47
2022/01/27 07:47:06;;;;;;;26.75;15.73;;;;;;;-1.17;100.00;95692.56;5044934;28;20055;-46
2022/01/27 07:49:33;;;;;;;22.13;13.30;;;;;;;-1.17;100.00;95695.13;5045714;28;20710;-47
2022/01/27 07:52:00;;;;;;;27.10;14.23;;;;;;;-1.20;100.00;95683.44;5046602;28;20041;-46
2022/01/27 07:54:27;;;;;;;22.17;12.80;;;;;;;-1.09;100.00;95695.25;5047206;28;20037;-47
2022/01/27 07:56:54;;;;;;;19.95;11.43;;;;;;;-1.12;100.00;95695.53;5046686;28;20498;-48
2022/01/27 07:59:20;;;;;;;19.38;11.57;;;;;;;-1.02;100.00;95701.44;5043460;28;20052;-48
2022/01/27 08:01:47;;;;;;;18.60;9.55;;;;;;;-0.99;100.00;95695.22;5050680;28;20052;-47
2022/01/27 08:04:14;;;;;;;18.50;10.40;;;;;;;-0.92;100.00;95700.59;5045830;28;20040;-47
2022/01/27 08:06:41;;;;;;;34.90;13.13;;;;;;;-0.82;100.00;95706.50;5047996;28;20049;-49
2022/01/27 08:09:08;;;;;;;20.58;11.05;;;;;;;-0.74;100.00;95713.47;5051782;28;20051;-45
2022/01/27 08:11:35;;;;;;;19.83;11.70;;;;;;;-0.71;100.00;95713.22;5045800;28;20045;-46
2022/01/27 08:14:02;;;;;;;16.60;10.82;;;;;;;-0.68;100.00;95688.16;5047501;28;20037;-47
2022/01/27 08:16:29;;;;;;;17.95;11.48;;;;;;;-0.61;100.00;95694.31;5046784;28;20047;-45
2022/01/27 08:18:56;;;;;;;17.67;9.68;;;;;;;-0.44;100.00;95715.00;5056214;28;20055;-47
2022/01/27 08:21:23;;;;;;;18.27;10.05;;;;;;;-0.36;100.00;95712.56;5051222;28;20044;-46
2022/01/27 08:23:51;;;;;;;17.00;9.00;;;;;;;-0.32;100.00;95708.75;5050955;28;20044;-47
2022/01/27 08:26:29;;;;;;;13.52;7.60;;;;;;;-0.15;100.00;95709.75;5045509;28;20040;-48
2022/01/27 08:32:55;;;;;;;16.58;11.70;;;;;;;-0.13;100.00;95712.16;5037592;28;20053;-46
2022/01/27 08:35:22;;;;;;;22.63;10.68;;;;;;;-0.18;100.00;95699.81;5044679;28;20139;-48
2022/01/27 08:37:50;;;;;;;7.80;5.05;;;;;;;-0.22;100.00;95724.91;5044893;28;20029;-48
2022/01/27 08:40:18;;;;;;;12.90;6.88;;;;;;;-0.30;100.00;95711.97;5045376;28;20518;-46
2022/01/27 08:43:04;;;;;;;13.50;7.47;;;;;;;-0.41;100.00;95700.19;5051030;28;20041;-47
2022/01/27 08:45:31;;;;;;;20.25;11.82;;;;;;;-0.17;100.00;95715.97;5044732;28;20481;-46
2022/01/27 08:47:59;;;;;;;20.35;11.70;;;;;;;-0.16;100.00;95722.69;5045203;28;20048;-45
2022/01/27 08:50:26;;;;;;;13.68;7.40;;;;;;;-0.16;100.00;95731.19;5045186;28;20494;-47
2022/01/27 08:52:53;;;;;;;20.73;10.57;;;;;;;-0.10;100.00;95722.94;5044173;28;20051;-46
2022/01/27 08:55:21;;;;;;;18.75;10.63;;;;;;;-0.02;100.00;95714.53;5047222;28;20041;-47
2022/01/27 08:57:49;;;;;;;10.68;6.40;;;;;;;0.06;100.00;95717.19;5044061;28;20041;-46
2022/01/27 09:00:19;;;;;;;18.85;8.48;;;;;;;0.06;100.00;95727.44;5045224;28;20045;-47
2022/01/27 09:02:51;;;;;;;18.48;9.27;;;;;;;-0.17;100.00;95719.34;5045585;28;20048;-47
2022/01/27 09:05:17;;;;;;;6.85;4.82;;;;;;;-0.07;100.00;95722.66;5044417;28;20403;-48
2022/01/27 09:07:44;;;;;;;15.90;8.73;;;;;;;0.04;100.00;95718.28;5043558;28;20068;-49
2022/01/27 09:10:11;;;;;;;15.73;8.07;;;;;;;0.05;100.00;95736.06;5044533;28;20052;-47
2022/01/27 09:12:38;;;;;;;13.63;7.85;;;;;;;0.08;100.00;95730.66;5052173;28;20063;-49
2022/01/27 09:15:05;;;;;;;13.02;7.97;;;;;;;0.12;100.00;95731.19;5049068;28;20044;-46
2022/01/27 09:17:39;;;;;;;10.52;6.47;;;;;;;0.01;100.00;95719.38;5041225;28;20513;-47
2022/01/27 09:20:08;;;;;;;16.85;8.02;;;;;;;-0.01;100.00;95731.53;5044105;28;20079;-46
2022/01/27 09:22:36;;;;;;;12.45;7.13;;;;;;;0.08;100.00;95738.34;5043374;28;20041;-47
2022/01/27 09:25:14;;;;;;;15.48;9.85;;;;;;;0.13;100.00;95728.47;5043706;28;20053;-47
2022/01/27 09:27:42;;;;;;;16.23;8.75;;;;;;;0.16;100.00;95723.06;5043490;28;20049;-45
2022/01/27 09:30:15;;;;;;;18.15;9.35;;;;;;;0.31;100.00;95714.91;5044393;28;20044;-45
2022/01/27 09:32:43;;;;;;;12.95;6.50;;;;;;;0.22;100.00;95724.25;5044043;28;20044;-46
2022/01/27 09:35:10;;;;;;;18.35;9.63;;;;;;;0.30;100.00;95708.16;5044794;28;20040;-47
2022/01/27 09:37:38;;;;;;;17.13;7.35;;;;;;;0.35;100.00;95705.97;5043822;28;20705;-46
2022/01/27 09:40:07;;;;;;;16.90;9.75;;;;;;;0.42;100.00;95699.28;5041743;28;20076;-48
2022/01/27 09:42:37;;;;;;;18.98;9.70;;;;;;;0.40;100.00;95708.88;5044163;28;20077;-46
2022/01/27 09:45:07;;;;;;;14.00;7.97;;;;;;;0.41;100.00;95704.56;5043167;28;20044;-50
2022/01/27 09:47:37;;;;;;;15.52;9.45;;;;;;;0.40;100.00;95690.94;5048032;28;20505;-49
2022/01/27 09:50:27;;;;;;;20.35;9.55;;;;;;;0.52;100.00;95691.53;5044718;28;20052;-49
2022/01/27 09:52:54;;;;;;;18.35;10.00;;;;;;;0.55;100.00;95676.66;5044755;28;20045;-48
2022/01/27 09:55:22;;;;;;;18.48;8.80;;;;;;;0.76;100.00;95688.38;5043148;28;20045;-48
2022/01/27 09:57:52;;;;;;;14.13;8.02;;;;;;;0.90;100.00;95690.41;5046804;28;20042;-47
2022/01/27 10:00:21;;;;;;;21.27;9.38;;;;;;;0.92;100.00;95685.91;5049314;28;20507;-50
2022/01/27 10:03:08;;;;;;;16.83;9.30;;;;;;;0.91;100.00;95692.00;5046149;28;20051;-50
2022/01/27 10:05:36;;;;;;;15.30;8.25;;;;;;;1.03;100.00;95678.94;5046065;28;20044;-53
2022/01/27 10:08:11;;;;;;;16.58;8.07;;;;;;;1.24;100.00;95681.13;5042404;28;20052;-48
2022/01/27 10:10:44;;;;;;;18.83;9.63;;;;;;;1.30;100.00;95681.34;5043029;28;20075;-50
2022/01/27 10:13:26;;;;;;;15.95;8.40;;;;;;;1.23;99.80;95670.06;5043665;28;20114;-46
2022/01/27 10:15:55;;;;;;;15.27;8.95;;;;;;;1.50;99.26;95684.50;5040828;28;20049;-48
2022/01/27 10:18:25;;;;;;;10.13;5.55;;;;;;;1.50;97.28;95681.13;5045569;28;20695;-50
2022/01/27 10:21:02;;;;;;;13.75;6.68;;;;;;;1.53;97.40;95680.78;5032677;28;20061;-49
2022/01/27 10:23:32;;;;;;;14.25;8.13;;;;;;;1.98;97.32;95674.56;5038459;28;20052;-48
2022/01/27 10:26:23;;;;;;;13.18;6.05;;;;;;;2.10;94.93;95668.16;5039120;28;20056;-49
2022/01/27 10:29:01;;;;;;;14.68;7.13;;;;;;;2.33;94.66;95671.91;5037519;28;20428;-50
2022/01/27 10:31:28;;;;;;;21.65;7.78;;;;;;;2.10;94.35;95673.28;5035177;28;20546;-50
2022/01/27 10:34:01;;;;;;;10.63;6.22;;;;;;;2.18;95.18;95679.41;5040963;28;20164;-49
2022/01/27 10:36:44;;;;;;;11.02;6.75;;;;;;;2.25;94.08;95670.94;5036594;28;20061;-52
2022/01/27 10:39:15;;;;;;;12.18;5.93;;;;;;;2.35;94.16;95670.78;5041530;28;20042;-50
2022/01/27 10:42:08;;;;;;;20.83;8.55;;;;;;;1.89;95.37;95670.34;5039653;28;20044;-50
2022/01/27 10:44:47;;;;;;;9.00;5.03;;;;;;;1.56;95.47;95670.22;5037836;28;20038;-51
2022/01/27 10:47:22;;;;;;;22.05;8.13;;;;;;;1.46;95.94;95664.41;5042735;28;20560;-50
2022/01/27 10:50:05;;;;;;;10.70;6.38;;;;;;;1.33;96.08;95665.66;5037513;28;20049;-47
2022/01/27 10:52:44;;;;;;;25.70;10.45;;;;;;;1.28;96.07;95659.38;5040536;28;20053;-50
2022/01/27 10:55:13;;;;;;;40.83;15.60;;;;;;;1.39;96.38;95663.41;5035869;28;20827;-52
2022/01/27 10:57:47;;;;;;;25.98;11.27;;;;;;;1.34;94.67;95651.84;5037479;28;20053;-49
2022/01/27 11:00:20;;;;;;;10.70;6.20;;;;;;;1.20;94.33;95644.72;5039125;28;20049;-48
2022/01/27 11:03:01;;;;;;;12.40;7.13;;;;;;;1.15;94.45;95652.06;5036422;28;20073;-51
2022/01/27 11:05:31;;;;;;;26.50;11.15;;;;;;;1.18;94.27;95641.50;5035066;28;20074;-50
2022/01/27 11:07:58;;;;;;;44.28;13.30;;;;;;;1.24;93.76;95655.47;5037113;28;20060;-47
2022/01/27 11:10:26;;;;;;;16.23;8.13;;;;;;;1.13;94.05;95643.72;5036642;28;20053;-48
2022/01/27 11:12:56;;;;;;;34.83;11.13;;;;;;;1.08;93.72;95633.09;5036759;28;20053;-49
2022/01/27 11:15:24;;;;;;;11.60;7.22;;;;;;;1.02;93.76;95637.06;5037104;28;20052;-49
2022/01/27 11:17:53;;;;;;;11.60;7.20;;;;;;;1.14;94.04;95640.19;5036802;28;20682;-48
2022/01/27 11:20:59;;;;;;;30.25;11.75;;;;;;;1.30;94.61;95624.88;5037399;28;20152;-49
2022/01/27 11:26:10;;;;;;;35.17;13.20;;;;;;;1.59;92.35;95631.41;5037747;28;20730;-51
2022/01/27 11:28:42;;;;;;;28.38;12.07;;;;;;;1.76;91.18;95628.88;5039532;28;20053;-49
2022/01/27 11:31:40;;;;;;;23.95;9.70;;;;;;;1.98;89.61;95623.19;5036788;28;20041;-50
2022/01/27 11:34:10;;;;;;;14.02;7.43;;;;;;;2.13;88.94;95625.13;5037738;28;20049;-50
2022/01/27 11:36:38;;;;;;;25.42;11.93;;;;;;;2.32;88.14;95624.81;5037717;28;20045;-49
2022/01/27 11:39:11;;;;;;;20.83;9.18;;;;;;;2.24;87.30;95628.19;5039073;28;20064;-49
2022/01/27 11:41:47;;;;;;;26.83;11.52;;;;;;;1.90;89.14;95610.31;5040354;28;20055;-52
2022/01/27 11:44:36;;;;;;;26.88;11.18;;;;;;;1.93;89.11;95615.13;5043472;28;20049;-49
2022/01/27 11:52:27;;;;;;;13.68;6.25;;;;;;;1.74;89.80;95620.53;5037986;28;20745;-48
2022/01/27 11:54:56;;;;;;;9.40;4.80;;;;;;;1.66;90.84;95629.81;5037269;28;20055;-50
2022/01/27 11:57:44;;;;;;;11.52;5.78;;;;;;;1.64;91.16;95621.47;5039133;28;20045;-52
2022/01/27 12:00:21;;;;;;;10.25;5.50;;;;;;;1.58;90.39;95616.94;5041192;28;20053;-50
2022/01/27 12:03:02;;;;;;;11.52;6.43;;;;;;;1.55;91.31;95627.56;5038290;28;20989;-48
2022/01/27 12:05:34;;;;;;;7.90;4.97;;;;;;;1.37;90.95;95619.13;5038059;28;20039;-48
2022/01/27 12:08:13;;;;;;;11.90;6.00;;;;;;;1.38;91.59;95610.47;5038901;28;20047;-51
2022/01/27 12:11:01;;;;;;;20.55;6.60;;;;;;;1.47;91.04;95612.09;5039537;28;20045;-49
2022/01/27 12:13:50;;;;;;;8.13;4.38;;;;;;;1.63;90.32;95603.66;5039629;28;20799;-49
2022/01/27 12:19:02;;;;;;;12.95;6.55;;;;;;;1.69;89.35;95601.28;5039782;28;20040;-50
2022/01/27 12:21:43;;;;;;;8.55;4.93;;;;;;;1.70;89.17;95604.66;5043202;28;20045;-50
2022/01/27 12:24:15;;;;;;;12.63;6.28;;;;;;;1.71;89.74;95596.78;5042269;28;21731;-51